Time;durP1;ratioP1;P1;durP2;ratioP2;P2;SDS_P1;SDS_P2;PMS_P1;PMS_P2;Temp;Humidity;BMP_temperature;BMP_pressure;BME280_temperature;BME280_humidity;BME280_pressure;Samples;Min_cycle;Max_cycle;Signal;HPM_P1;HPM_P2
2023/12/11 00:00:25;;;;;;;12.75;2.30;;;;;;;17.56;52.55;99871.56;5064778;28;20040;-61
2023/12/11 00:02:51;;;;;;;22.38;2.60;;;;;;;17.55;52.20;99869.94;5081341;28;20040;-61
2023/12/11 00:05:16;;;;;;;12.38;3.35;;;;;;;17.54;52.99;99861.97;5078632;28;20021;-61
2023/12/11 00:07:42;;;;;;;12.93;2.65;;;;;;;17.54;52.72;99860.13;5082600;28;20447;-61
2023/12/11 00:10:07;;;;;;;17.63;2.47;;;;;;;17.56;52.75;99866.16;5090238;28;20522;-61
2023/12/11 00:12:33;;;;;;;9.32;2.83;;;;;;;17.53;52.01;99854.88;5063157;28;20391;-61
2023/12/11 00:14:59;;;;;;;13.52;3.25;;;;;;;17.53;52.30;99865.72;5048490;28;20111;-62
2023/12/11 00:17:24;;;;;;;12.35;3.05;;;;;;;17.52;52.99;99864.88;5082330;28;20035;-61
2023/12/11 00:19:50;;;;;;;10.23;2.22;;;;;;;17.52;52.40;99859.44;5063451;28;20024;-60
2023/12/11 00:22:15;;;;;;;10.05;2.00;;;;;;;17.51;52.53;99871.31;5065267;28;20536;-61
2023/12/11 00:24:41;;;;;;;14.73;3.95;;;;;;;17.51;52.50;99857.75;5089032;28;20116;-62
2023/12/11 00:27:06;;;;;;;19.33;2.70;;;;;;;17.51;52.74;99857.75;5063915;28;20488;-62
2023/12/11 00:29:31;;;;;;;7.82;2.10;;;;;;;17.54;52.08;99861.97;5092138;28;20032;-61
2023/12/11 00:31:57;;;;;;;11.13;3.28;;;;;;;17.54;53.13;99868.25;5069155;28;20035;-61
2023/12/11 00:34:22;;;;;;;13.57;3.20;;;;;;;17.55;53.24;99869.09;5076314;28;20052;-61
2023/12/11 00:36:47;;;;;;;24.35;2.83;;;;;;;17.55;52.16;99863.66;5067696;28;20107;-61
2023/12/11 00:39:15;;;;;;;18.75;2.38;;;;;;;17.57;53.19;99870.56;5077487;28;20495;-60
2023/12/11 00:41:43;;;;;;;9.80;2.30;;;;;;;17.55;51.91;99869.94;5092613;28;20243;-60
2023/12/11 00:44:08;;;;;;;19.83;4.13;;;;;;;17.55;52.99;99872.63;5045559;28;20036;-61
2023/12/11 00:46:34;;;;;;;14.75;2.25;;;;;;;17.56;52.00;99868.88;5076151;28;20029;-60
2023/12/11 00:48:59;;;;;;;23.70;2.70;;;;;;;17.56;52.60;99871.56;5075379;28;20472;-61
2023/12/11 00:51:24;;;;;;;15.98;2.92;;;;;;;17.58;51.42;99877.66;5076128;28;20033;-62
2023/12/11 00:53:50;;;;;;;15.50;2.97;;;;;;;17.59;53.30;99875.78;5058259;28;20032;-60
2023/12/11 00:56:16;;;;;;;14.30;2.25;;;;;;;17.59;52.42;99887.44;5058237;28;20135;-61
2023/12/11 00:58:41;;;;;;;21.80;2.28;;;;;;;17.59;52.80;99875.78;5076171;28;20070;-63
2023/12/11 01:01:07;;;;;;;18.63;2.42;;;;;;;17.60;52.67;99872.88;5058200;28;20503;-63
2023/12/11 01:03:34;;;;;;;11.73;2.55;;;;;;;17.60;51.99;99875.56;5058029;28;20086;-63
2023/12/11 01:05:59;;;;;;;10.30;2.30;;;;;;;17.60;52.36;99878.28;5058009;28;20036;-63
2023/12/11 01:08:28;;;;;;;25.15;2.97;;;;;;;17.62;52.41;99865.38;5040892;28;20043;-64
2023/12/11 01:10:57;;;;;;;14.88;2.80;;;;;;;17.63;52.17;99875.19;5058188;28;20047;-64
2023/12/11 01:13:23;;;;;;;10.98;2.50;;;;;;;17.62;52.64;99876.22;5041302;28;20029;-63
2023/12/11 01:15:48;;;;;;;12.18;2.95;;;;;;;17.62;52.00;99881.63;5058097;28;20032;-63
2023/12/11 01:18:14;;;;;;;18.42;3.45;;;;;;;17.63;52.28;99875.19;5057966;28;20036;-64
2023/12/11 01:20:39;;;;;;;18.27;2.53;;;;;;;17.66;52.19;99865.81;5041447;28;20492;-64
2023/12/11 01:23:05;;;;;;;15.98;4.03;;;;;;;17.66;51.84;99855.00;5058232;28;20028;-64
2023/12/11 01:25:30;;;;;;;21.52;3.08;;;;;;;17.65;52.28;99859.56;5057961;28;20051;-63
2023/12/11 01:27:56;;;;;;;22.17;3.20;;;;;;;17.64;52.31;99863.31;5057603;28;20115;-64
2023/12/11 01:30:21;;;;;;;16.45;2.40;;;;;;;17.66;51.96;99855.00;5075562;28;20115;-63
2023/12/11 01:32:46;;;;;;;21.48;2.65;;;;;;;17.65;51.51;99854.16;5040828;28;20086;-64
2023/12/11 01:35:12;;;;;;;11.48;2.60;;;;;;;17.64;52.17;99841.66;5075481;28;20043;-64
2023/12/11 01:37:38;;;;;;;21.27;2.67;;;;;;;17.64;52.05;99852.50;5075421;28;20055;-63
2023/12/11 01:40:07;;;;;;;21.17;2.63;;;;;;;17.64;52.37;99849.78;5074937;28;20029;-63
2023/12/11 01:42:33;;;;;;;22.50;3.13;;;;;;;17.63;51.81;99845.41;5057014;28;20090;-63
2023/12/11 01:44:58;;;;;;;13.15;2.67;;;;;;;17.65;51.98;99834.34;5075251;28;20024;-63
2023/12/11 01:47:24;;;;;;;12.23;2.85;;;;;;;17.64;51.70;99836.25;5075229;28;20521;-64
2023/12/11 01:49:49;;;;;;;15.27;2.92;;;;;;;17.63;51.64;99828.31;5040363;28;20118;-63
2023/12/11 01:52:15;;;;;;;19.48;2.70;;;;;;;17.63;51.92;99825.59;5057170;28;20036;-64
2023/12/11 01:54:41;;;;;;;15.73;3.13;;;;;;;17.61;51.70;99833.09;5040606;28;20043;-63
2023/12/11 01:57:07;;;;;;;11.15;2.15;;;;;;;17.60;52.27;99829.53;5056684;28;20403;-63
2023/12/11 01:59:33;;;;;;;9.23;2.63;;;;;;;17.63;52.00;99834.56;5057080;28;20036;-63
2023/12/11 02:01:59;;;;;;;13.02;2.55;;;;;;;17.65;52.30;99832.47;5057077;28;20036;-63
2023/12/11 02:04:24;;;;;;;16.17;3.63;;;;;;;17.63;51.62;99829.13;5057195;28;20029;-63
2023/12/11 02:06:50;;;;;;;15.82;2.95;;;;;;;17.63;52.13;99815.59;5074969;28;20554;-64
2023/12/11 02:09:16;;;;;;;19.42;3.83;;;;;;;17.62;51.94;99827.47;5057086;28;20033;-61
2023/12/11 02:11:42;;;;;;;22.15;3.40;;;;;;;17.62;51.87;99832.88;5056946;28;20033;-61
2023/12/11 02:14:08;;;;;;;9.82;1.95;;;;;;;17.60;51.45;99826.81;5056877;28;20032;-61
2023/12/11 02:16:33;;;;;;;15.38;3.38;;;;;;;17.61;51.73;99814.97;5074250;28;20032;-61
2023/12/11 02:18:58;;;;;;;9.52;2.10;;;;;;;17.60;52.04;99807.88;5040089;28;20496;-60
2023/12/11 02:21:24;;;;;;;14.02;4.10;;;;;;;17.63;51.91;99817.47;5056820;28;20040;-61
2023/12/11 02:23:55;;;;;;;7.22;1.95;;;;;;;17.60;51.91;99802.47;5056743;28;20566;-60
2023/12/11 02:26:21;;;;;;;14.18;2.25;;;;;;;17.54;52.08;99795.13;5040148;28;20507;-61
2023/12/11 02:28:46;;;;;;;12.75;2.38;;;;;;;17.59;51.42;99797.25;5074734;28;20039;-63
2023/12/11 02:31:12;;;;;;;11.38;2.63;;;;;;;17.61;51.44;99792.47;5057604;28;20396;-61
2023/12/11 02:33:38;;;;;;;16.17;2.35;;;;;;;17.61;51.36;99785.19;5040981;28;20033;-60
2023/12/11 02:36:04;;;;;;;8.15;3.15;;;;;;;17.64;52.07;99775.81;5075144;28;20040;-60
2023/12/11 02:38:29;;;;;;;18.15;2.35;;;;;;;17.61;51.76;99763.50;5056910;28;20037;-60
2023/12/11 02:40:55;;;;;;;19.92;3.13;;;;;;;17.62;51.08;99770.59;5040657;28;20063;-61
2023/12/11 02:43:20;;;;;;;14.68;2.65;;;;;;;17.60;51.18;99753.72;5075592;28;20373;-60
2023/12/11 02:45:45;;;;;;;18.00;2.08;;;;;;;17.57;52.00;99759.53;5056524;28;20060;-60
2023/12/11 02:48:11;;;;;;;19.52;3.72;;;;;;;17.53;51.74;99760.94;5055742;28;20496;-60
2023/12/11 02:50:36;;;;;;;16.00;2.65;;;;;;;17.53;51.30;99763.66;5056023;28;20045;-60
2023/12/11 02:53:03;;;;;;;11.30;2.10;;;;;;;17.52;51.32;99759.25;5055798;28;20522;-60
2023/12/11 02:55:28;;;;;;;11.70;1.70;;;;;;;17.48;51.34;99734.44;5055969;28;20029;-60
2023/12/11 02:57:58;;;;;;;15.93;2.15;;;;;;;17.49;51.29;99735.28;5055810;28;20040;-60
2023/12/11 03:00:28;;;;;;;16.08;2.95;;;;;;;17.48;50.59;99736.31;5039361;28;20024;-61
2023/12/11 03:02:54;;;;;;;8.80;2.22;;;;;;;17.43;51.83;99730.66;5055858;28;20028;-61
2023/12/11 03:05:19;;;;;;;16.88;1.98;;;;;;;17.42;51.36;99731.69;5055894;28;20373;-61
2023/12/11 03:07:45;;;;;;;15.07;2.67;;;;;;;17.39;51.43;99718.59;5055795;28;20037;-63
2023/12/11 03:10:10;;;;;;;10.55;2.97;;;;;;;17.36;51.47;99714.38;5073993;28;20051;-62
2023/12/11 03:12:36;;;;;;;18.33;2.70;;;;;;;17.33;51.72;99719.38;5055570;28;20016;-61
2023/12/11 03:15:03;;;;;;;16.42;2.70;;;;;;;17.33;50.92;99725.63;5038878;28;20392;-61
2023/12/11 03:17:29;;;;;;;25.35;4.15;;;;;;;17.31;51.39;99727.69;5073665;28;20032;-61
2023/12/11 03:19:54;;;;;;;14.05;2.33;;;;;;;17.32;50.94;99728.53;5055594;28;20021;-62
2023/12/11 03:22:19;;;;;;;13.73;2.78;;;;;;;17.34;51.61;99715.63;5073330;28;20319;-63
2023/12/11 03:24:46;;;;;;;12.45;2.08;;;;;;;17.33;50.96;99708.56;5038942;28;20026;-62
2023/12/11 03:27:11;;;;;;;18.13;3.30;;;;;;;17.32;51.31;99706.88;5055692;28;20372;-61
2023/12/11 03:29:37;;;;;;;13.93;3.20;;;;;;;17.34;50.90;99705.63;5055600;28;20027;-60
2023/12/11 03:32:02;;;;;;;11.52;1.80;;;;;;;17.38;51.02;99689.84;5055385;28;20431;-61
2023/12/11 03:34:28;;;;;;;21.45;2.88;;;;;;;17.38;50.97;99695.25;5073318;28;20029;-62
2023/12/11 03:36:53;;;;;;;18.38;2.67;;;;;;;17.40;51.13;99693.16;5073320;28;20035;-61
2023/12/11 03:39:18;;;;;;;14.85;2.45;;;;;;;17.42;50.72;99685.66;5055183;28;20020;-61
2023/12/11 03:41:45;;;;;;;13.02;3.10;;;;;;;17.44;51.54;99689.03;5038520;28;20051;-62
2023/12/11 03:44:10;;;;;;;12.02;1.90;;;;;;;17.42;50.83;99681.09;5055011;28;20099;-62
2023/12/11 03:46:36;;;;;;;18.30;3.30;;;;;;;17.44;51.59;99684.47;5055144;28;20019;-61
2023/12/11 03:49:01;;;;;;;19.38;2.33;;;;;;;17.44;50.49;99684.47;5054791;28;20397;-62
2023/12/11 03:51:26;;;;;;;6.47;2.25;;;;;;;17.48;50.91;99696.53;5055128;28;20074;-62
2023/12/11 03:53:52;;;;;;;19.98;3.83;;;;;;;17.48;50.65;99696.53;5073038;28;20028;-61
2023/12/11 03:56:17;;;;;;;19.25;3.10;;;;;;;17.49;51.08;99683.84;5055119;28;20033;-61
2023/12/11 03:58:43;;;;;;;15.48;2.55;;;;;;;17.47;51.36;99683.22;5038332;28;20082;-61
2023/12/11 04:01:08;;;;;;;12.18;2.58;;;;;;;17.48;50.58;99682.16;5072768;28;20028;-61
2023/12/11 04:03:33;;;;;;;16.90;2.83;;;;;;;17.46;50.96;99676.13;5072510;28;20021;-61
2023/12/11 04:05:59;;;;;;;13.57;2.58;;;;;;;17.49;51.07;99686.56;5037895;28;20030;-61
2023/12/11 04:08:24;;;;;;;12.95;2.05;;;;;;;17.49;50.95;99681.13;5072611;28;20032;-62
2023/12/11 04:10:49;;;;;;;12.15;2.58;;;;;;;17.43;51.57;99684.66;5054962;28;20565;-61
2023/12/11 04:13:15;;;;;;;7.88;2.40;;;;;;;17.38;50.73;99674.44;5054808;28;20025;-61
2023/12/11 04:15:40;;;;;;;17.52;2.05;;;;;;;17.31;50.88;99672.69;5072780;28;20029;-61
2023/12/11 04:18:06;;;;;;;17.38;2.42;;;;;;;17.28;51.24;99679.34;5072568;28;20025;-61
2023/12/11 04:20:32;;;;;;;14.68;2.08;;;;;;;17.19;52.00;99669.75;5054712;28;20039;-61
2023/12/11 04:22:58;;;;;;;16.90;2.25;;;;;;;17.18;51.53;99678.06;5072609;28;20506;-61
2023/12/11 04:25:23;;;;;;;11.57;1.80;;;;;;;17.11;51.87;99696.13;5072828;28;20024;-61
2023/12/11 04:27:48;;;;;;;10.20;1.85;;;;;;;17.05;52.12;99686.94;5055005;28;20071;-61
2023/12/11 04:30:14;;;;;;;8.55;1.77;;;;;;;17.00;52.41;99681.28;5055110;28;20494;-61
2023/12/11 04:32:39;;;;;;;8.98;2.30;;;;;;;16.99;51.88;99689.59;5038586;28;20036;-61
2023/12/11 04:35:05;;;;;;;16.83;2.47;;;;;;;16.96;52.04;99687.28;5038677;28;20561;-60
2023/12/11 04:37:30;;;;;;;14.48;2.58;;;;;;;16.95;51.60;99683.75;5055601;28;20039;-65
2023/12/11 04:39:56;;;;;;;14.15;2.90;;;;;;;16.96;51.18;99695.41;5039525;28;20088;-63
2023/12/11 04:42:21;;;;;;;13.48;2.30;;;;;;;16.94;51.49;99683.94;5072746;28;20399;-60
2023/12/11 04:44:47;;;;;;;20.75;2.15;;;;;;;16.98;51.05;99699.56;5038373;28;20029;-61
2023/12/11 04:47:12;;;;;;;12.52;2.92;;;;;;;16.99;51.80;99708.53;5069912;28;20387;-61
2023/12/11 04:49:37;;;;;;;6.93;1.92;;;;;;;16.98;52.43;99699.56;5064050;28;20644;-61
2023/12/11 04:52:04;;;;;;;9.05;1.60;;;;;;;16.96;51.80;99707.06;5054644;28;20032;-61
2023/12/11 04:54:29;;;;;;;13.32;1.85;;;;;;;16.92;52.22;99699.56;5054541;28;20400;-61
2023/12/11 04:56:55;;;;;;;5.85;1.23;;;;;;;16.88;52.58;99704.53;5054465;28;20037;-61
2023/12/11 04:59:20;;;;;;;13.68;1.85;;;;;;;16.84;52.46;99690.53;5054447;28;20029;-60
2023/12/11 05:01:45;;;;;;;7.55;1.55;;;;;;;16.83;52.03;99702.38;5037828;28;20048;-61
2023/12/11 05:04:11;;;;;;;7.50;1.30;;;;;;;16.82;51.59;99695.31;5054563;28;20086;-61
2023/12/11 05:06:37;;;;;;;9.70;1.42;;;;;;;16.80;52.29;99683.88;5072326;28;20044;-61
2023/12/11 05:09:02;;;;;;;11.90;1.70;;;;;;;16.78;51.77;99683.22;5072036;28;20040;-61
2023/12/11 05:11:28;;;;;;;9.48;1.63;;;;;;;16.78;52.46;99682.38;5054191;28;20110;-60
2023/12/11 05:13:53;;;;;;;9.68;1.92;;;;;;;16.79;52.76;99681.34;5072206;28;20082;-61
2023/12/11 05:16:18;;;;;;;12.05;1.38;;;;;;;16.79;51.97;99682.19;5057182;28;20040;-61
2023/12/11 05:18:44;;;;;;;11.75;1.80;;;;;;;16.79;52.02;99682.19;5075934;28;20048;-61
2023/12/11 05:21:09;;;;;;;14.95;1.92;;;;;;;16.82;51.74;99678.25;5058182;28;20032;-61
2023/12/11 05:23:35;;;;;;;10.45;2.10;;;;;;;16.78;51.71;99671.56;5076121;28;20108;-61
2023/12/11 05:26:01;;;;;;;12.23;2.13;;;;;;;16.79;52.70;99674.06;5057985;28;20446;-61
2023/12/11 05:28:26;;;;;;;18.13;2.42;;;;;;;16.77;52.35;99676.16;5058266;28;20120;-61
2023/12/11 05:30:52;;;;;;;15.05;2.20;;;;;;;16.77;52.03;99676.16;5057866;28;20589;-61
2023/12/11 05:33:17;;;;;;;12.85;1.90;;;;;;;16.75;51.58;99670.09;5057833;28;20047;-61
2023/12/11 05:35:43;;;;;;;8.77;1.50;;;;;;;16.78;53.02;99656.16;5057871;28;20491;-61
2023/12/11 05:38:08;;;;;;;17.13;2.17;;;;;;;16.78;51.94;99669.69;5075379;28;20033;-61
2023/12/11 05:40:33;;;;;;;17.13;2.55;;;;;;;16.77;51.77;99659.94;5040929;28;20028;-61
2023/12/11 05:42:59;;;;;;;16.20;2.75;;;;;;;16.77;52.59;99662.63;5075387;28;20488;-62
2023/12/11 05:45:24;;;;;;;11.43;2.05;;;;;;;16.77;51.65;99659.94;5057695;28;20037;-61
2023/12/11 05:47:49;;;;;;;12.63;2.40;;;;;;;16.77;52.35;99654.50;5040624;28;20073;-61
2023/12/11 05:50:15;;;;;;;9.07;2.20;;;;;;;16.74;52.69;99654.06;5075037;28;20053;-61
2023/12/11 05:52:41;;;;;;;14.82;2.38;;;;;;;16.71;51.95;99655.31;5040852;28;20086;-62
2023/12/11 05:55:06;;;;;;;17.55;2.78;;;;;;;16.74;52.38;99664.88;5057466;28;20037;-61
2023/12/11 05:57:32;;;;;;;6.78;1.77;;;;;;;16.69;51.89;99635.75;5075132;28;20044;-61
2023/12/11 05:59:57;;;;;;;13.40;2.33;;;;;;;16.70;52.11;99648.22;5057088;28;20053;-61
2023/12/11 06:02:24;;;;;;;8.82;2.10;;;;;;;16.70;52.12;99641.97;5056405;28;20558;-61
2023/12/11 06:04:51;;;;;;;17.25;2.33;;;;;;;16.71;52.61;99655.31;5075457;28;20029;-61
2023/12/11 06:07:16;;;;;;;11.90;1.67;;;;;;;16.73;52.40;99663.19;5040697;28;20377;-60
2023/12/11 06:09:42;;;;;;;7.05;1.27;;;;;;;16.67;52.38;99659.41;5057128;28;20048;-61
2023/12/11 06:12:09;;;;;;;16.75;2.15;;;;;;;16.72;52.24;99651.53;5057152;28;20153;-61
2023/12/11 06:14:38;;;;;;;12.23;1.65;;;;;;;16.71;51.91;99658.00;5075000;28;20028;-62
2023/12/11 06:17:03;;;;;;;14.65;2.05;;;;;;;16.70;51.67;99661.72;5057064;28;20040;-61
2023/12/11 06:19:29;;;;;;;12.43;2.22;;;;;;;16.69;52.06;99668.19;5075252;28;20029;-61
2023/12/11 06:21:54;;;;;;;10.50;1.42;;;;;;;16.72;51.57;99667.75;5057378;28;20032;-61
2023/12/11 06:24:19;;;;;;;8.25;2.20;;;;;;;16.72;51.93;99670.47;5057706;28;20044;-61
2023/12/11 06:26:45;;;;;;;10.43;1.73;;;;;;;16.76;52.52;99668.22;5056644;28;20021;-60
2023/12/11 06:29:10;;;;;;;11.38;1.77;;;;;;;16.77;51.88;99675.31;5074769;28;20040;-61
2023/12/11 06:31:35;;;;;;;14.18;2.75;;;;;;;16.77;52.20;99691.53;5074632;28;20419;-61
2023/12/11 06:34:01;;;;;;;10.48;1.58;;;;;;;16.79;52.31;99668.66;5057197;28;20043;-61
2023/12/11 06:36:28;;;;;;;8.00;1.58;;;;;;;16.83;51.38;99674.53;5056867;28;20039;-61
2023/12/11 06:38:54;;;;;;;12.20;1.60;;;;;;;16.86;51.60;99669.53;5057599;28;20032;-61
2023/12/11 06:41:19;;;;;;;12.13;2.28;;;;;;;16.87;52.51;99671.22;5057262;28;20139;-61
2023/12/11 06:43:52;;;;;;;12.95;1.83;;;;;;;16.88;51.78;99680.16;5040486;28;20029;-61
2023/12/11 06:46:18;;;;;;;14.63;2.03;;;;;;;16.90;51.39;99680.81;5074699;28;20047;-62
2023/12/11 06:48:43;;;;;;;16.17;1.50;;;;;;;16.91;51.89;99676.22;5055958;28;20040;-61
2023/12/11 06:51:09;;;;;;;16.10;2.05;;;;;;;16.90;51.74;99683.50;5039478;28;20459;-61
2023/12/11 06:53:34;;;;;;;14.27;3.05;;;;;;;16.92;51.21;99688.72;5039820;28;20507;-61
2023/12/11 06:56:00;;;;;;;8.82;1.95;;;;;;;16.92;51.99;99675.22;5056093;28;20028;-61
2023/12/11 06:58:25;;;;;;;15.07;3.15;;;;;;;16.93;51.40;99679.56;5073841;28;20037;-61
2023/12/11 07:00:50;;;;;;;18.42;2.22;;;;;;;16.95;51.16;99675.63;5039373;28;20120;-62
2023/12/11 07:03:17;;;;;;;15.50;2.08;;;;;;;16.98;51.91;99682.50;5071789;28;20443;-61
2023/12/11 07:05:43;;;;;;;19.30;1.92;;;;;;;16.95;51.35;99666.66;5056464;28;20078;-62
2023/12/11 07:08:08;;;;;;;11.45;1.70;;;;;;;16.97;52.29;99675.44;5056353;28;20032;-61
2023/12/11 07:10:34;;;;;;;15.98;1.65;;;;;;;16.99;51.31;99673.38;5055801;28;20419;-61
2023/12/11 07:12:59;;;;;;;4.55;1.15;;;;;;;16.98;51.69;99687.91;5039255;28;20032;-61
2023/12/11 07:15:25;;;;;;;13.93;2.53;;;;;;;16.98;51.63;99688.75;5073709;28;20043;-61
2023/12/11 07:17:50;;;;;;;11.45;1.60;;;;;;;17.05;51.65;99688.81;5054642;28;20044;-61
2023/12/11 07:20:15;;;;;;;11.95;2.20;;;;;;;17.02;52.25;99700.88;5055588;28;20033;-61
2023/12/11 07:22:41;;;;;;;8.63;1.70;;;;;;;17.05;51.51;99695.06;5073489;28;20033;-61
2023/12/11 07:25:07;;;;;;;4.88;1.23;;;;;;;17.07;51.21;99706.53;5055758;28;20032;-61
2023/12/11 07:27:33;;;;;;;13.02;2.35;;;;;;;17.07;51.29;99705.69;5073510;28;20174;-61
2023/12/11 07:29:59;;;;;;;12.85;2.75;;;;;;;17.06;51.46;99706.69;5073339;28;20036;-61
2023/12/11 07:32:25;;;;;;;9.35;1.73;;;;;;;17.08;50.80;99710.91;5073258;28;20404;-61
2023/12/11 07:34:50;;;;;;;8.68;2.25;;;;;;;17.09;50.87;99709.00;5073413;28;20103;-62
2023/12/11 07:37:15;;;;;;;9.20;1.75;;;;;;;17.08;51.39;99699.25;5055196;28;20408;-61
2023/12/11 07:39:41;;;;;;;9.15;1.52;;;;;;;17.11;51.45;99712.38;5054556;28;20225;-62
2023/12/11 07:42:07;;;;;;;24.35;2.03;;;;;;;17.12;51.56;99717.56;5055208;28;20462;-60
2023/12/11 07:44:32;;;;;;;7.28;1.85;;;;;;;17.12;51.37;99719.44;5055198;28;20381;-61
2023/12/11 07:46:59;;;;;;;8.38;2.15;;;;;;;17.11;51.29;99718.63;5055053;28;20082;-61
2023/12/11 07:49:25;;;;;;;9.13;2.65;;;;;;;17.10;51.18;99721.50;5072823;28;20630;-61
2023/12/11 07:51:52;;;;;;;11.98;1.90;;;;;;;17.11;50.58;99724.03;5054996;28;20039;-62
2023/12/11 07:54:17;;;;;;;10.20;2.28;;;;;;;17.08;50.53;99731.72;5038198;28;20506;-61
2023/12/11 07:56:43;;;;;;;10.23;1.67;;;;;;;17.13;51.04;99730.09;5054870;28;20166;-62
2023/12/11 07:59:09;;;;;;;14.68;1.67;;;;;;;17.16;50.45;99734.25;5055175;28;20029;-61
2023/12/11 08:01:35;;;;;;;10.52;2.20;;;;;;;17.18;51.03;99730.31;5055070;28;20033;-62
2023/12/11 08:04:01;;;;;;;14.35;2.28;;;;;;;17.21;50.51;99729.09;5072702;28;20050;-62
2023/12/11 08:06:26;;;;;;;14.93;2.28;;;;;;;17.19;50.62;99739.28;5038437;28;20040;-62
2023/12/11 08:08:52;;;;;;;14.95;2.88;;;;;;;17.18;50.69;99743.00;5054700;28;20036;-61
2023/12/11 08:11:21;;;;;;;18.67;3.53;;;;;;;17.19;50.76;99747.41;5054315;28;20551;-62
2023/12/11 08:13:47;;;;;;;9.65;1.83;;;;;;;17.21;50.53;99758.84;5071641;28;20040;-61
2023/12/11 08:16:13;;;;;;;11.35;1.80;;;;;;;17.21;51.20;99759.69;5071744;28;20041;-61
2023/12/11 08:18:40;;;;;;;14.52;2.25;;;;;;;17.20;50.66;99751.75;5038554;28;20045;-61
2023/12/11 08:21:06;;;;;;;13.48;1.88;;;;;;;17.21;50.86;99775.09;5054803;28;20399;-62
2023/12/11 08:23:32;;;;;;;11.40;2.33;;;;;;;17.21;50.77;99772.38;5054649;28;20037;-62
2023/12/11 08:25:57;;;;;;;12.10;2.40;;;;;;;17.20;51.36;99765.28;5071649;28;20039;-61
2023/12/11 08:28:22;;;;;;;16.30;2.50;;;;;;;17.21;51.56;99775.09;5072656;28;20035;-63
2023/12/11 08:30:48;;;;;;;17.77;3.38;;;;;;;17.23;50.54;99794.66;5054518;28;20086;-61
2023/12/11 08:33:13;;;;;;;15.82;1.73;;;;;;;17.23;51.25;99776.56;5071353;28;20097;-62
2023/12/11 08:35:39;;;;;;;18.45;2.10;;;;;;;17.22;50.44;99782.19;5072462;28;20090;-61
2023/12/11 08:38:04;;;;;;;11.88;2.05;;;;;;;17.18;50.96;99803.38;5072327;28;20033;-61
2023/12/11 08:40:31;;;;;;;15.77;2.58;;;;;;;17.16;50.25;99796.50;5038088;28;20120;-61
2023/12/11 08:42:57;;;;;;;10.07;2.22;;;;;;;17.19;50.96;99804.22;5055204;28;20500;-61
2023/12/11 08:45:22;;;;;;;13.32;2.72;;;;;;;17.18;51.26;99805.25;5055023;28;20067;-61
2023/12/11 08:47:48;;;;;;;16.88;2.10;;;;;;;17.20;50.74;99816.72;5054784;28;20032;-62
2023/12/11 08:50:14;;;;;;;14.73;3.22;;;;;;;17.18;50.84;99824.19;5055841;28;20044;-61
2023/12/11 08:52:41;;;;;;;8.88;2.00;;;;;;;17.14;51.60;99825.66;5076756;28;20461;-62
2023/12/11 08:55:07;;;;;;;16.05;3.15;;;;;;;17.15;51.38;99830.00;5058475;28;20063;-66
2023/12/11 08:57:33;;;;;;;20.10;2.30;;;;;;;17.13;51.07;99826.66;5075773;28;20064;-61
2023/12/11 08:59:58;;;;;;;13.65;1.80;;;;;;;17.15;50.72;99838.13;5058545;28;20032;-61
2023/12/11 09:02:23;;;;;;;15.40;3.08;;;;;;;17.18;51.35;99845.84;5041550;28;20047;-61
2023/12/11 09:04:49;;;;;;;13.15;2.28;;;;;;;17.20;50.80;99849.19;5058232;28;20033;-61
2023/12/11 09:07:14;;;;;;;14.82;2.50;;;;;;;17.21;50.80;99850.88;5041492;28;20495;-62
2023/12/11 09:09:39;;;;;;;11.55;2.42;;;;;;;17.21;51.30;99856.28;5076912;28;20029;-61
2023/12/11 09:12:05;;;;;;;11.70;2.58;;;;;;;17.17;50.54;99861.25;5096044;28;20404;-61
2023/12/11 09:14:32;;;;;;;14.93;2.72;;;;;;;17.16;51.30;99866.88;5079292;28;20105;-62
2023/12/11 09:16:57;;;;;;;11.80;2.25;;;;;;;17.19;51.12;99874.59;5079266;28;20035;-61
2023/12/11 09:19:23;;;;;;;14.02;2.65;;;;;;;17.18;50.66;99867.50;5062081;28;20028;-64
2023/12/11 09:21:49;;;;;;;15.32;3.38;;;;;;;17.19;50.28;99880.00;5078744;28;20081;-63
2023/12/11 09:24:15;;;;;;;9.48;2.40;;;;;;;17.21;51.60;99894.19;5096137;28;20044;-61
2023/12/11 09:26:41;;;;;;;13.00;2.35;;;;;;;17.17;50.58;99884.78;5077898;28;20036;-61
2023/12/11 09:29:06;;;;;;;15.70;2.90;;;;;;;17.17;50.75;99901.84;5077759;28;20040;-61
2023/12/11 09:31:31;;;;;;;17.83;2.83;;;;;;;17.23;51.59;99902.94;5077657;28;20035;-61
2023/12/11 09:33:57;;;;;;;11.18;3.33;;;;;;;17.25;50.95;99911.72;5095563;28;20032;-61
2023/12/11 09:36:22;;;;;;;12.50;2.15;;;;;;;17.28;51.05;99916.75;5077239;28;20039;-61
2023/12/11 09:38:47;;;;;;;11.52;2.47;;;;;;;17.28;50.88;99916.75;5060613;28;20039;-61
2023/12/11 09:41:13;;;;;;;14.45;2.35;;;;;;;17.30;51.36;99925.50;5077585;28;20557;-61
2023/12/11 09:43:39;;;;;;;19.67;2.63;;;;;;;17.31;50.91;99927.16;5077322;28;20032;-60
2023/12/11 09:46:08;;;;;;;7.60;2.05;;;;;;;17.31;51.35;99929.88;5077336;28;20085;-62
2023/12/11 09:48:34;;;;;;;21.33;2.78;;;;;;;17.32;51.08;99945.09;5077184;28;20109;-61
2023/12/11 09:51:00;;;;;;;13.85;2.08;;;;;;;17.35;51.16;99950.13;5077305;28;20036;-61
2023/12/11 09:53:26;;;;;;;8.82;1.58;;;;;;;17.33;50.49;99957.59;5095468;28;20036;-61
2023/12/11 09:55:52;;;;;;;13.35;2.65;;;;;;;17.34;51.23;99957.41;5077124;28;20105;-61
2023/12/11 09:58:21;;;;;;;19.77;3.15;;;;;;;17.38;51.13;99965.97;5077112;28;20495;-61
2023/12/11 10:00:46;;;;;;;10.93;1.45;;;;;;;17.41;50.72;99965.59;5077048;28;20063;-61
2023/12/11 10:03:12;;;;;;;19.45;2.53;;;;;;;17.43;51.25;99964.34;5093971;28;20064;-61
2023/12/11 10:05:37;;;;;;;15.93;2.35;;;;;;;17.47;50.12;99976.47;5076666;28;20044;-61
2023/12/11 10:08:03;;;;;;;8.07;2.00;;;;;;;17.50;51.05;99972.56;5076931;28;20050;-61
2023/12/11 10:10:33;;;;;;;10.05;2.05;;;;;;;17.57;50.64;99980.75;5087219;28;20032;-61
2023/12/11 10:13:00;;;;;;;16.52;1.98;;;;;;;17.59;50.52;99976.00;5074191;28;20073;-61
2023/12/11 10:15:31;;;;;;;13.77;2.15;;;;;;;17.61;50.88;99977.47;5056973;28;20037;-61
2023/12/11 10:18:04;;;;;;;7.05;1.33;;;;;;;17.66;50.99;99983.13;5056470;28;20040;-61
2023/12/11 10:20:30;;;;;;;13.70;1.83;;;;;;;17.72;50.00;99984.22;5057125;28;20055;-61
2023/12/11 10:22:56;;;;;;;7.82;1.77;;;;;;;17.72;50.49;99985.06;5040035;28;20025;-61
2023/12/11 10:25:28;;;;;;;10.05;1.75;;;;;;;17.75;50.00;99979.25;5073324;28;20108;-60
2023/12/11 10:28:10;;;;;;;13.18;1.52;;;;;;;17.76;50.25;99991.75;5056437;28;20024;-61
2023/12/11 10:30:55;;;;;;;13.52;1.75;;;;;;;17.79;50.00;99995.94;5040074;28;20433;-60
2023/12/11 10:33:21;;;;;;;9.32;1.55;;;;;;;17.79;50.14;99994.06;5056431;28;20029;-61
2023/12/11 10:35:47;;;;;;;7.78;1.33;;;;;;;17.79;50.00;100002.19;5074447;28;20052;-60
2023/12/11 10:38:23;;;;;;;11.18;1.77;;;;;;;17.80;50.40;100003.88;5056145;28;20061;-61
2023/12/11 10:40:49;;;;;;;10.27;1.58;;;;;;;17.80;49.91;100006.59;5074183;28;20124;-61
2023/12/11 10:43:15;;;;;;;5.03;1.10;;;;;;;17.82;49.76;100012.66;5056392;28;20039;-60
2023/12/11 10:45:40;;;;;;;10.35;1.63;;;;;;;17.83;50.51;100011.63;5075845;28;20036;-61
2023/12/11 10:48:06;;;;;;;7.28;1.88;;;;;;;17.85;49.77;100014.13;5076025;28;20028;-60
2023/12/11 10:50:33;;;;;;;9.43;4.43;;;;;;;17.84;50.19;100010.56;5076462;28;20055;-60
2023/12/11 10:53:00;;;;;;;5.53;1.38;;;;;;;17.88;49.46;100019.16;5094215;28;20032;-61
2023/12/11 10:55:26;;;;;;;13.23;1.88;;;;;;;17.84;49.57;100025.97;5094590;28;20028;-60
2023/12/11 10:57:52;;;;;;;7.57;1.50;;;;;;;17.81;49.91;100031.81;5094274;28;20545;-60
2023/12/11 11:00:20;;;;;;;6.45;1.30;;;;;;;17.76;49.84;100028.84;5076092;28;20032;-60
2023/12/11 11:02:46;;;;;;;8.57;1.30;;;;;;;17.73;50.12;100035.47;5059349;28;20412;-60
2023/12/11 11:05:12;;;;;;;6.03;1.48;;;;;;;17.70;49.64;100041.28;5075852;28;20507;-61
2023/12/11 11:07:46;;;;;;;9.02;1.52;;;;;;;17.67;49.74;100052.50;5076228;28;20032;-61
2023/12/11 11:10:24;;;;;;;12.05;1.90;;;;;;;17.60;49.83;100048.91;5070264;28;20113;-61
2023/12/11 11:12:53;;;;;;;18.13;2.17;;;;;;;17.58;49.83;100055.56;5038639;28;20373;-61
2023/12/11 11:15:23;;;;;;;4.40;1.15;;;;;;;17.52;50.38;100057.13;5055596;28;20129;-61
2023/12/11 11:18:05;;;;;;;9.32;2.97;;;;;;;17.44;50.87;100051.84;5055738;28;20400;-61
2023/12/11 11:20:35;;;;;;;12.10;1.47;;;;;;;17.42;50.52;100053.88;5055543;28;20170;-61